sensor_id;sensor_type;location;lat;lon;timestamp;pressure;altitude;pressure_sealevel;temperature;humidity
18819;BME280;9537;45.594;9.294;2023-12-07T00:00:45;99683.09;;;1.21;80.91
18819;BME280;9537;45.594;9.294;2023-12-07T00:01:46;99679.06;;;1.17;80.91
18819;BME280;9537;45.594;9.294;2023-12-07T00:02:46;99678.34;;;1.15;80.78
18819;BME280;9537;45.594;9.294;2023-12-07T00:03:48;99681.19;;;1.12;80.14
18819;BME280;9537;45.594;9.294;2023-12-07T00:04:49;99678.81;;;1.09;80.36
18819;BME280;9537;45.594;9.294;2023-12-07T00:05:52;99674.03;;;1.03;80.22
18819;BME280;9537;45.594;9.294;2023-12-07T00:06:53;99672.38;;;1.02;81.14
18819;BME280;9537;45.594;9.294;2023-12-07T00:07:55;99668.59;;;1.06;81.71
18819;BME280;9537;45.594;9.294;2023-12-07T00:08:55;99670.28;;;1.07;81.97
18819;BME280;9537;45.594;9.294;2023-12-07T00:09:56;99671.91;;;1.08;81.94
18819;BME280;9537;45.594;9.294;2023-12-07T00:10:58;99668.41;;;1.09;81.91
18819;BME280;9537;45.594;9.294;2023-12-07T00:11:59;99669.31;;;1.08;81.69
18819;BME280;9537;45.594;9.294;2023-12-07T00:13:01;99668.41;;;1.09;81.77
18819;BME280;9537;45.594;9.294;2023-12-07T00:14:01;99668.41;;;1.09;81.88
18819;BME280;9537;45.594;9.294;2023-12-07T00:15:05;99665.44;;;1.13;82.58
18819;BME280;9537;45.594;9.294;2023-12-07T00:16:06;99675.63;;;1.17;82.11
18819;BME280;9537;45.594;9.294;2023-12-07T00:17:08;99670.66;;;1.13;81.20
18819;BME280;9537;45.594;9.294;2023-12-07T00:18:08;99676.56;;;1.16;81.73
18819;BME280;9537;45.594;9.294;2023-12-07T00:19:09;99677.63;;;1.13;80.91
18819;BME280;9537;45.594;9.294;2023-12-07T00:20:11;99673.25;;;1.13;81.71
18819;BME280;9537;45.594;9.294;2023-12-07T00:21:13;99675.25;;;1.10;80.87
18819;BME280;9537;45.594;9.294;2023-12-07T00:22:15;99677.47;;;1.03;81.24
18819;BME280;9537;45.594;9.294;2023-12-07T00:23:16;99682.06;;;1.00;80.69
18819;BME280;9537;45.594;9.294;2023-12-07T00:24:16;99682.06;;;1.00;80.56
18819;BME280;9537;45.594;9.294;2023-12-07T00:25:18;99676.75;;;1.01;80.83
18819;BME280;9537;45.594;9.294;2023-12-07T00:26:19;99675.81;;;1.02;80.91
18819;BME280;9537;45.594;9.294;2023-12-07T00:27:21;99677.56;;;1.02;80.46
18819;BME280;9537;45.594;9.294;2023-12-07T00:28:21;99680.19;;;1.02;80.94
18819;BME280;9537;45.594;9.294;2023-12-07T00:29:23;99668.00;;;1.02;80.45
18819;BME280;9537;45.594;9.294;2023-12-07T00:30:24;99668.81;;;1.03;80.86
18819;BME280;9537;45.594;9.294;2023-12-07T00:31:25;99678.19;;;1.05;81.73
18819;BME280;9537;45.594;9.294;2023-12-07T00:32:26;99672.28;;;1.03;81.77
18819;BME280;9537;45.594;9.294;2023-12-07T00:33:28;99674.03;;;1.03;81.12
18819;BME280;9537;45.594;9.294;2023-12-07T00:34:29;99675.81;;;1.02;81.36
18819;BME280;9537;45.594;9.294;2023-12-07T00:35:31;99678.41;;;1.02;81.65
18819;BME280;9537;45.594;9.294;2023-12-07T00:36:33;99685.38;;;1.02;80.99
18819;BME280;9537;45.594;9.294;2023-12-07T00:37:35;99680.50;;;0.97;81.43
18819;BME280;9537;45.594;9.294;2023-12-07T00:38:36;99677.06;;;0.97;81.04
18819;BME280;9537;45.594;9.294;2023-12-07T00:39:37;99674.47;;;0.97;80.60
18819;BME280;9537;45.594;9.294;2023-12-07T00:40:38;99679.06;;;0.93;80.66
18819;BME280;9537;45.594;9.294;2023-12-07T00:41:40;99677.53;;;0.90;80.84
18819;BME280;9537;45.594;9.294;2023-12-07T00:42:41;99682.63;;;0.92;81.30
18819;BME280;9537;45.594;9.294;2023-12-07T00:43:43;99684.50;;;0.90;80.94
18819;BME280;9537;45.594;9.294;2023-12-07T00:44:44;99686.06;;;0.93;81.89
18819;BME280;9537;45.594;9.294;2023-12-07T00:45:46;99680.63;;;0.96;81.71
18819;BME280;9537;45.594;9.294;2023-12-07T00:46:46;99685.81;;;0.96;81.44
18819;BME280;9537;45.594;9.294;2023-12-07T00:47:48;99683.09;;;0.97;81.75
18819;BME280;9537;45.594;9.294;2023-12-07T00:48:49;99675.28;;;0.97;81.36
18819;BME280;9537;45.594;9.294;2023-12-07T00:49:51;99683.22;;;0.96;81.50
18819;BME280;9537;45.594;9.294;2023-12-07T00:50:51;99685.00;;;0.95;80.79
18819;BME280;9537;45.594;9.294;2023-12-07T00:51:53;99685.94;;;0.94;80.56
18819;BME280;9537;45.594;9.294;2023-12-07T00:52:55;99683.22;;;0.96;81.05
18819;BME280;9537;45.594;9.294;2023-12-07T00:53:56;99683.09;;;0.97;80.87
18819;BME280;9537;45.594;9.294;2023-12-07T00:54:58;99682.28;;;0.97;80.87
18819;BME280;9537;45.594;9.294;2023-12-07T00:55:59;99683.22;;;0.96;80.16
18819;BME280;9537;45.594;9.294;2023-12-07T00:57:01;99680.72;;;0.94;80.51
18819;BME280;9537;45.594;9.294;2023-12-07T00:58:02;99679.91;;;0.94;80.13
18819;BME280;9537;45.594;9.294;2023-12-07T00:59:03;99684.28;;;0.93;81.03
18819;BME280;9537;45.594;9.294;2023-12-07T01:00:05;99686.56;;;0.98;80.88
18819;BME280;9537;45.594;9.294;2023-12-07T01:01:08;99686.06;;;0.93;80.72
18819;BME280;9537;45.594;9.294;2023-12-07T01:02:09;99687.41;;;0.85;80.41
18819;BME280;9537;45.594;9.294;2023-12-07T01:03:10;99686.72;;;0.83;80.35
18819;BME280;9537;45.594;9.294;2023-12-07T01:04:11;99687.41;;;0.85;80.32
18819;BME280;9537;45.594;9.294;2023-12-07T01:05:13;99676.72;;;0.77;80.95
18819;BME280;9537;45.594;9.294;2023-12-07T01:06:14;99681.00;;;0.78;80.92
18819;BME280;9537;45.594;9.294;2023-12-07T01:07:20;99684.44;;;0.79;80.46
18819;BME280;9537;45.594;9.294;2023-12-07T01:08:21;99675.31;;;0.73;81.36
18819;BME280;9537;45.594;9.294;2023-12-07T01:09:23;99683.94;;;0.74;81.47
18819;BME280;9537;45.594;9.294;2023-12-07T01:10:24;99678.03;;;0.72;81.15
18819;BME280;9537;45.594;9.294;2023-12-07T01:11:25;99679.78;;;0.71;80.97
18819;BME280;9537;45.594;9.294;2023-12-07T01:12:26;99675.53;;;0.70;81.42
18819;BME280;9537;45.594;9.294;2023-12-07T01:13:28;99681.53;;;0.71;81.32
18819;BME280;9537;45.594;9.294;2023-12-07T01:14:29;99675.44;;;0.72;82.20
18819;BME280;9537;45.594;9.294;2023-12-07T01:15:31;99673.53;;;0.74;82.01
18819;BME280;9537;45.594;9.294;2023-12-07T01:16:32;99674.34;;;0.74;81.24
18819;BME280;9537;45.594;9.294;2023-12-07T01:17:33;99678.63;;;0.75;81.85
18819;BME280;9537;45.594;9.294;2023-12-07T01:18:34;99674.13;;;0.77;81.27
18819;BME280;9537;45.594;9.294;2023-12-07T01:19:35;99673.31;;;0.77;81.83
18819;BME280;9537;45.594;9.294;2023-12-07T01:20:36;99675.09;;;0.76;81.43
18819;BME280;9537;45.594;9.294;2023-12-07T01:21:37;99671.53;;;0.77;81.85
18819;BME280;9537;45.594;9.294;2023-12-07T01:22:41;99675.91;;;0.77;81.86
18819;BME280;9537;45.594;9.294;2023-12-07T01:23:42;99681.75;;;0.80;81.61
18819;BME280;9537;45.594;9.294;2023-12-07T01:24:44;99685.03;;;0.82;81.88
18819;BME280;9537;45.594;9.294;2023-12-07T01:25:44;99679.13;;;0.80;82.34
18819;BME280;9537;45.594;9.294;2023-12-07T01:26:47;99681.75;;;0.80;82.57
18819;BME280;9537;45.594;9.294;2023-12-07T01:27:47;99673.94;;;0.80;81.80
18819;BME280;9537;45.594;9.294;2023-12-07T01:28:49;99679.97;;;0.81;82.27
18819;BME280;9537;45.594;9.294;2023-12-07T01:29:50;99683.38;;;0.81;82.22
18819;BME280;9537;45.594;9.294;2023-12-07T01:30:52;99681.53;;;0.83;82.73
18819;BME280;9537;45.594;9.294;2023-12-07T01:31:53;99689.09;;;0.86;82.23
18819;BME280;9537;45.594;9.294;2023-12-07T01:32:55;99685.66;;;0.86;81.18
18819;BME280;9537;45.594;9.294;2023-12-07T01:33:55;99682.00;;;0.88;81.05
18819;BME280;9537;45.594;9.294;2023-12-07T01:34:56;99686.50;;;0.86;80.77
18819;BME280;9537;45.594;9.294;2023-12-07T01:35:58;99689.91;;;0.87;80.21
18819;BME280;9537;45.594;9.294;2023-12-07T01:36:59;99682.94;;;0.87;80.63
18819;BME280;9537;45.594;9.294;2023-12-07T01:38:02;99682.34;;;0.84;80.77
18819;BME280;9537;45.594;9.294;2023-12-07T01:39:03;99687.63;;;0.82;80.79
18819;BME280;9537;45.594;9.294;2023-12-07T01:40:06;99686.00;;;0.81;80.73
18819;BME280;9537;45.594;9.294;2023-12-07T01:41:12;99684.22;;;0.82;80.06
18819;BME280;9537;45.594;9.294;2023-12-07T01:42:14;99687.53;;;0.84;80.14
18819;BME280;9537;45.594;9.294;2023-12-07T01:43:15;99684.94;;;0.84;80.44
18819;BME280;9537;45.594;9.294;2023-12-07T01:44:17;99684.00;;;0.85;80.00
18819;BME280;9537;45.594;9.294;2023-12-07T01:45:17;99686.81;;;0.82;80.36
18819;BME280;9537;45.594;9.294;2023-12-07T01:46:18;99693.78;;;0.81;79.83
18819;BME280;9537;45.594;9.294;2023-12-07T01:47:20;99689.41;;;0.82;80.32
18819;BME280;9537;45.594;9.294;2023-12-07T01:48:21;99696.38;;;0.81;80.06
18819;BME280;9537;45.594;9.294;2023-12-07T01:49:25;99691.91;;;0.83;80.10
18819;BME280;9537;45.594;9.294;2023-12-07T01:50:26;99696.25;;;0.83;80.18
18819;BME280;9537;45.594;9.294;2023-12-07T01:51:28;99692.63;;;0.85;79.55
18819;BME280;9537;45.594;9.294;2023-12-07T01:52:29;99697.13;;;0.83;79.47
18819;BME280;9537;45.594;9.294;2023-12-07T01:53:31;99692.13;;;0.80;79.66
18819;BME280;9537;45.594;9.294;2023-12-07T01:54:34;99694.09;;;0.77;79.30
18819;BME280;9537;45.594;9.294;2023-12-07T01:55:35;99692.47;;;0.76;79.42
18819;BME280;9537;45.594;9.294;2023-12-07T01:56:39;99693.72;;;0.70;80.18
18819;BME280;9537;45.594;9.294;2023-12-07T01:57:41;99703.16;;;0.71;80.12
18819;BME280;9537;45.594;9.294;2023-12-07T01:58:44;99700.91;;;0.66;80.70
18819;BME280;9537;45.594;9.294;2023-12-07T01:59:45;99702.34;;;0.71;80.81
18819;BME280;9537;45.594;9.294;2023-12-07T02:00:48;99694.53;;;0.71;80.27
18819;BME280;9537;45.594;9.294;2023-12-07T02:01:49;99696.22;;;0.72;80.24
18819;BME280;9537;45.594;9.294;2023-12-07T02:02:51;99701.31;;;0.73;80.14
18819;BME280;9537;45.594;9.294;2023-12-07T02:03:52;99706.41;;;0.75;80.16
18819;BME280;9537;45.594;9.294;2023-12-07T02:04:54;99697.88;;;0.73;80.48
18819;BME280;9537;45.594;9.294;2023-12-07T02:05:55;99703.06;;;0.73;79.58
18819;BME280;9537;45.594;9.294;2023-12-07T02:07:00;99703.91;;;0.73;79.90
18819;BME280;9537;45.594;9.294;2023-12-07T02:08:02;99702.13;;;0.74;79.50
18819;BME280;9537;45.594;9.294;2023-12-07T02:09:05;99700.47;;;0.73;80.11
18819;BME280;9537;45.594;9.294;2023-12-07T02:10:07;99703.06;;;0.73;80.17
18819;BME280;9537;45.594;9.294;2023-12-07T02:11:09;99702.13;;;0.74;79.71
18819;BME280;9537;45.594;9.294;2023-12-07T02:12:10;99699.66;;;0.72;80.35
18819;BME280;9537;45.594;9.294;2023-12-07T02:13:12;99702.94;;;0.74;79.48
18819;BME280;9537;45.594;9.294;2023-12-07T02:14:13;99697.97;;;0.71;79.88
18819;BME280;9537;45.594;9.294;2023-12-07T02:15:15;99693.72;;;0.70;79.60
18819;BME280;9537;45.594;9.294;2023-12-07T02:16:20;99698.09;;;0.70;80.58
18819;BME280;9537;45.594;9.294;2023-12-07T02:17:28;99698.91;;;0.70;80.33
18819;BME280;9537;45.594;9.294;2023-12-07T02:18:38;99706.72;;;0.70;80.12
18819;BME280;9537;45.594;9.294;2023-12-07T02:19:56;99704.44;;;0.65;79.78
18819;BME280;9537;45.594;9.294;2023-12-07T02:21:02;99700.09;;;0.66;79.33
18819;BME280;9537;45.594;9.294;2023-12-07T02:22:09;99699.34;;;0.64;79.38
18819;BME280;9537;45.594;9.294;2023-12-07T02:23:13;99705.38;;;0.64;79.97
18819;BME280;9537;45.594;9.294;2023-12-07T02:24:20;99697.69;;;0.63;79.44
18819;BME280;9537;45.594;9.294;2023-12-07T02:25:26;99702.06;;;0.62;80.40
18819;BME280;9537;45.594;9.294;2023-12-07T02:26:33;99706.34;;;0.63;80.08
18819;BME280;9537;45.594;9.294;2023-12-07T02:27:35;99707.03;;;0.65;80.49
18819;BME280;9537;45.594;9.294;2023-12-07T02:28:37;99711.19;;;0.68;80.50
18819;BME280;9537;45.594;9.294;2023-12-07T02:29:38;99707.88;;;0.66;80.00
18819;BME280;9537;45.594;9.294;2023-12-07T02:30:40;99701.00;;;0.65;79.48
18819;BME280;9537;45.594;9.294;2023-12-07T02:31:41;99706.22;;;0.65;79.26
18819;BME280;9537;45.594;9.294;2023-12-07T02:32:44;99707.88;;;0.66;79.33
18819;BME280;9537;45.594;9.294;2023-12-07T02:33:45;99701.00;;;0.65;79.28
18819;BME280;9537;45.594;9.294;2023-12-07T02:34:47;99700.09;;;0.66;79.79
18819;BME280;9537;45.594;9.294;2023-12-07T02:35:48;99704.44;;;0.65;79.44
18819;BME280;9537;45.594;9.294;2023-12-07T02:36:52;99700.28;;;0.63;79.22
18819;BME280;9537;45.594;9.294;2023-12-07T02:37:54;99697.28;;;0.56;78.96
18819;BME280;9537;45.594;9.294;2023-12-07T02:38:58;99696.56;;;0.54;79.53
18819;BME280;9537;45.594;9.294;2023-12-07T02:40:01;99698.47;;;0.52;79.87
18819;BME280;9537;45.594;9.294;2023-12-07T02:41:04;99698.56;;;0.51;80.35
18819;BME280;9537;45.594;9.294;2023-12-07T02:42:09;99705.44;;;0.52;79.86
18819;BME280;9537;45.594;9.294;2023-12-07T02:43:10;99695.94;;;0.51;79.81
18819;BME280;9537;45.594;9.294;2023-12-07T02:44:12;99695.94;;;0.51;80.14
18819;BME280;9537;45.594;9.294;2023-12-07T02:45:13;99693.34;;;0.51;80.69
18819;BME280;9537;45.594;9.294;2023-12-07T02:46:16;99697.63;;;0.52;80.62
18819;BME280;9537;45.594;9.294;2023-12-07T02:47:17;99693.25;;;0.52;80.44
18819;BME280;9537;45.594;9.294;2023-12-07T02:48:20;99693.97;;;0.54;79.72
18819;BME280;9537;45.594;9.294;2023-12-07T02:49:21;99684.50;;;0.53;80.15
18819;BME280;9537;45.594;9.294;2023-12-07T02:50:23;99689.63;;;0.55;80.48
18819;BME280;9537;45.594;9.294;2023-12-07T02:51:23;99684.28;;;0.56;79.95
18819;BME280;9537;45.594;9.294;2023-12-07T02:52:25;99690.44;;;0.55;80.14
18819;BME280;9537;45.594;9.294;2023-12-07T02:53:26;99688.66;;;0.56;80.48
18819;BME280;9537;45.594;9.294;2023-12-07T02:54:28;99694.69;;;0.56;79.80
18819;BME280;9537;45.594;9.294;2023-12-07T02:55:28;99691.50;;;0.53;79.44
18819;BME280;9537;45.594;9.294;2023-12-07T02:56:30;99694.41;;;0.48;79.15
18819;BME280;9537;45.594;9.294;2023-12-07T02:57:32;99688.50;;;0.46;79.66
18819;BME280;9537;45.594;9.294;2023-12-07T02:58:35;99687.75;;;0.44;79.54
18819;BME280;9537;45.594;9.294;2023-12-07T02:59:35;99692.34;;;0.40;79.27
18819;BME280;9537;45.594;9.294;2023-12-07T03:00:37;99697.84;;;0.36;80.06
18819;BME280;9537;45.594;9.294;2023-12-07T03:01:38;99697.13;;;0.34;79.59
18819;BME280;9537;45.594;9.294;2023-12-07T03:02:40;99698.16;;;0.31;79.37
18819;BME280;9537;45.594;9.294;2023-12-07T03:03:41;99693.81;;;0.32;79.25
18819;BME280;9537;45.594;9.294;2023-12-07T03:04:43;99687.78;;;0.31;80.32
18819;BME280;9537;45.594;9.294;2023-12-07T03:05:44;99684.47;;;0.29;79.60
18819;BME280;9537;45.594;9.294;2023-12-07T03:06:45;99686.94;;;0.31;79.78
18819;BME280;9537;45.594;9.294;2023-12-07T03:07:46;99694.88;;;0.29;80.27
18819;BME280;9537;45.594;9.294;2023-12-07T03:08:47;99698.16;;;0.31;80.27
18819;BME280;9537;45.594;9.294;2023-12-07T03:09:49;99695.56;;;0.31;80.93
18819;BME280;9537;45.594;9.294;2023-12-07T03:10:49;99695.34;;;0.34;80.93
18819;BME280;9537;45.594;9.294;2023-12-07T03:11:50;99696.31;;;0.33;80.07
18819;BME280;9537;45.594;9.294;2023-12-07T03:12:54;99703.06;;;0.36;80.97
18819;BME280;9537;45.594;9.294;2023-12-07T03:13:54;99699.03;;;0.32;80.90
18819;BME280;9537;45.594;9.294;2023-12-07T03:14:56;99703.56;;;0.28;81.14
18819;BME280;9537;45.594;9.294;2023-12-07T03:15:57;99709.50;;;0.30;80.75
18819;BME280;9537;45.594;9.294;2023-12-07T03:16:58;99705.03;;;0.32;80.42
18819;BME280;9537;45.594;9.294;2023-12-07T03:18:00;99699.13;;;0.30;80.47
18819;BME280;9537;45.594;9.294;2023-12-07T03:19:00;99700.75;;;0.31;80.58
18819;BME280;9537;45.594;9.294;2023-12-07T03:20:01;99704.09;;;0.33;80.90
18819;BME280;9537;45.594;9.294;2023-12-07T03:21:04;99706.47;;;0.36;81.38
18819;BME280;9537;45.594;9.294;2023-12-07T03:22:05;99701.19;;;0.38;81.18
18819;BME280;9537;45.594;9.294;2023-12-07T03:23:07;99703.66;;;0.39;81.14
18819;BME280;9537;45.594;9.294;2023-12-07T03:24:08;99706.25;;;0.39;81.25
18819;BME280;9537;45.594;9.294;2023-12-07T03:25:09;99708.88;;;0.39;82.03
18819;BME280;9537;45.594;9.294;2023-12-07T03:26:11;99705.34;;;0.40;82.30
18819;BME280;9537;45.594;9.294;2023-12-07T03:27:12;99711.25;;;0.42;82.42
18819;BME280;9537;45.594;9.294;2023-12-07T03:28:15;99707.94;;;0.40;81.65
18819;BME280;9537;45.594;9.294;2023-12-07T03:29:16;99714.06;;;0.39;82.16
18819;BME280;9537;45.594;9.294;2023-12-07T03:30:16;99706.16;;;0.41;81.75
18819;BME280;9537;45.594;9.294;2023-12-07T03:31:18;99712.94;;;0.43;81.93
18819;BME280;9537;45.594;9.294;2023-12-07T03:32:19;99711.16;;;0.44;81.81
18819;BME280;9537;45.594;9.294;2023-12-07T03:33:21;99711.03;;;0.45;82.08
18819;BME280;9537;45.594;9.294;2023-12-07T03:34:21;99712.81;;;0.45;82.32
18819;BME280;9537;45.594;9.294;2023-12-07T03:35:23;99702.41;;;0.45;82.03
18819;BME280;9537;45.594;9.294;2023-12-07T03:36:24;99712.09;;;0.43;81.40
18819;BME280;9537;45.594;9.294;2023-12-07T03:37:26;99709.50;;;0.43;82.11
18819;BME280;9537;45.594;9.294;2023-12-07T03:38:27;99714.56;;;0.44;81.45
18819;BME280;9537;45.594;9.294;2023-12-07T03:39:29;99711.25;;;0.42;80.36
18819;BME280;9537;45.594;9.294;2023-12-07T03:40:32;99709.59;;;0.41;79.62
18819;BME280;9537;45.594;9.294;2023-12-07T03:41:33;99714.19;;;0.38;79.87
18819;BME280;9537;45.594;9.294;2023-12-07T03:42:34;99711.69;;;0.36;79.81
18819;BME280;9537;45.594;9.294;2023-12-07T03:43:37;99713.53;;;0.34;80.20
18819;BME280;9537;45.594;9.294;2023-12-07T03:44:38;99717.91;;;0.34;80.45
18819;BME280;9537;45.594;9.294;2023-12-07T03:45:40;99717.81;;;0.35;80.10
18819;BME280;9537;45.594;9.294;2023-12-07T03:46:41;99706.47;;;0.36;79.55
18819;BME280;9537;45.594;9.294;2023-12-07T03:47:42;99710.03;;;0.35;80.08
18819;BME280;9537;45.594;9.294;2023-12-07T03:48:43;99717.91;;;0.34;79.55
18819;BME280;9537;45.594;9.294;2023-12-07T03:49:45;99717.81;;;0.35;79.73
18819;BME280;9537;45.594;9.294;2023-12-07T03:50:46;99719.59;;;0.35;79.27
18819;BME280;9537;45.594;9.294;2023-12-07T03:51:47;99722.63;;;0.29;79.20
18819;BME280;9537;45.594;9.294;2023-12-07T03:52:49;99721.88;;;0.27;79.36
18819;BME280;9537;45.594;9.294;2023-12-07T03:53:49;99721.06;;;0.26;79.70
18819;BME280;9537;45.594;9.294;2023-12-07T03:54:51;99724.69;;;0.24;79.22
18819;BME280;9537;45.594;9.294;2023-12-07T03:55:52;99729.47;;;0.17;79.69
18819;BME280;9537;45.594;9.294;2023-12-07T03:56:54;99722.81;;;0.13;79.74
18819;BME280;9537;45.594;9.294;2023-12-07T03:57:54;99722.81;;;0.13;80.05
18819;BME280;9537;45.594;9.294;2023-12-07T03:58:57;99723.56;;;0.15;80.12
18819;BME280;9537;45.594;9.294;2023-12-07T03:59:58;99726.16;;;0.15;80.08
18819;BME280;9537;45.594;9.294;2023-12-07T04:01:00;99725.22;;;0.16;79.81
18819;BME280;9537;45.594;9.294;2023-12-07T04:02:01;99725.13;;;0.17;80.39
18819;BME280;9537;45.594;9.294;2023-12-07T04:03:03;99733.00;;;0.16;80.58
18819;BME280;9537;45.594;9.294;2023-12-07T04:04:04;99733.94;;;0.15;79.95
18819;BME280;9537;45.594;9.294;2023-12-07T04:05:06;99733.13;;;0.14;79.66
18819;BME280;9537;45.594;9.294;2023-12-07T04:06:07;99736.84;;;0.10;80.32
18819;BME280;9537;45.594;9.294;2023-12-07T04:07:09;99732.69;;;0.08;79.86
18819;BME280;9537;45.594;9.294;2023-12-07T04:08:10;99738.91;;;0.05;79.14
18819;BME280;9537;45.594;9.294;2023-12-07T04:09:11;99740.47;;;0.08;79.43
18819;BME280;9537;45.594;9.294;2023-12-07T04:10:13;99737.78;;;0.09;78.90
18819;BME280;9537;45.594;9.294;2023-12-07T04:11:14;99746.41;;;0.10;79.26
18819;BME280;9537;45.594;9.294;2023-12-07T04:12:15;99743.19;;;0.19;78.83
18819;BME280;9537;45.594;9.294;2023-12-07T04:13:17;99741.75;;;0.15;78.82
18819;BME280;9537;45.594;9.294;2023-12-07T04:14:20;99744.75;;;0.09;78.67
18819;BME280;9537;45.594;9.294;2023-12-07T04:15:22;99737.25;;;0.04;78.54
18819;BME280;9537;45.594;9.294;2023-12-07T04:16:23;99739.03;;;0.04;78.71
18819;BME280;9537;45.594;9.294;2023-12-07T04:17:26;99745.16;;;0.03;78.95
18819;BME280;9537;45.594;9.294;2023-12-07T04:18:26;99750.34;;;0.03;79.29
18819;BME280;9537;45.594;9.294;2023-12-07T04:19:28;99743.28;;;0.05;79.97
18819;BME280;9537;45.594;9.294;2023-12-07T04:20:29;99742.25;;;0.07;80.22
18819;BME280;9537;45.594;9.294;2023-12-07T04:21:31;99745.47;;;0.11;80.33
18819;BME280;9537;45.594;9.294;2023-12-07T04:22:31;99746.50;;;0.08;79.95
18819;BME280;9537;45.594;9.294;2023-12-07T04:23:33;99747.25;;;0.10;80.85
18819;BME280;9537;45.594;9.294;2023-12-07T04:24:34;99751.41;;;0.13;80.94
18819;BME280;9537;45.594;9.294;2023-12-07T04:25:35;99747.84;;;0.14;80.11
18819;BME280;9537;45.594;9.294;2023-12-07T04:26:37;99747.16;;;0.12;79.91
18819;BME280;9537;45.594;9.294;2023-12-07T04:27:38;99746.19;;;0.13;79.87
18819;BME280;9537;45.594;9.294;2023-12-07T04:28:39;99751.41;;;0.13;79.19
18819;BME280;9537;45.594;9.294;2023-12-07T04:29:42;99751.19;;;0.16;79.69
18819;BME280;9537;45.594;9.294;2023-12-07T04:30:43;99755.75;;;0.12;79.48
18819;BME280;9537;45.594;9.294;2023-12-07T04:31:45;99754.50;;;0.05;78.62
18819;BME280;9537;45.594;9.294;2023-12-07T04:32:45;99754.81;;;0.01;78.37
18819;BME280;9537;45.594;9.294;2023-12-07T04:33:47;99750.75;;;-0.04;79.06
18819;BME280;9537;45.594;9.294;2023-12-07T04:34:48;99754.19;;;-0.03;79.34
18819;BME280;9537;45.594;9.294;2023-12-07T04:35:50;99754.91;;;-0.01;79.13
18819;BME280;9537;45.594;9.294;2023-12-07T04:36:50;99759.06;;;0.02;79.52
18819;BME280;9537;45.594;9.294;2023-12-07T04:37:52;99753.06;;;0.01;79.96
18819;BME280;9537;45.594;9.294;2023-12-07T04:38:53;99753.06;;;0.01;79.68
18819;BME280;9537;45.594;9.294;2023-12-07T04:39:55;99748.69;;;0.02;80.31
18819;BME280;9537;45.594;9.294;2023-12-07T04:40:55;99746.09;;;0.02;80.30
18819;BME280;9537;45.594;9.294;2023-12-07T04:41:57;99750.25;;;0.04;80.49
18819;BME280;9537;45.594;9.294;2023-12-07T04:42:58;99757.91;;;0.06;80.66
18819;BME280;9537;45.594;9.294;2023-12-07T04:43:59;99757.31;;;0.02;79.09
18819;BME280;9537;45.594;9.294;2023-12-07T04:45:02;99757.63;;;-0.03;79.48
18819;BME280;9537;45.594;9.294;2023-12-07T04:46:04;99763.75;;;-0.04;78.48
18819;BME280;9537;45.594;9.294;2023-12-07T04:47:05;99758.66;;;-0.05;78.64
18819;BME280;9537;45.594;9.294;2023-12-07T04:48:07;99760.22;;;-0.03;79.02
18819;BME280;9537;45.594;9.294;2023-12-07T04:49:08;99762.91;;;-0.04;79.62
18819;BME280;9537;45.594;9.294;2023-12-07T04:50:09;99752.53;;;-0.04;79.38
18819;BME280;9537;45.594;9.294;2023-12-07T04:51:10;99754.09;;;-0.02;79.51
18819;BME280;9537;45.594;9.294;2023-12-07T04:52:12;99752.22;;;0.01;79.83
18819;BME280;9537;45.594;9.294;2023-12-07T04:53:12;99763.31;;;0.03;79.66
18819;BME280;9537;45.594;9.294;2023-12-07T04:54:14;99759.38;;;-0.03;79.02
18819;BME280;9537;45.594;9.294;2023-12-07T04:55:15;99757.84;;;-0.06;78.79
18819;BME280;9537;45.594;9.294;2023-12-07T04:56:17;99749.41;;;-0.09;78.90
18819;BME280;9537;45.594;9.294;2023-12-07T04:57:18;99764.16;;;-0.10;79.44
18819;BME280;9537;45.594;9.294;2023-12-07T04:58:20;99762.19;;;-0.06;78.61
18819;BME280;9537;45.594;9.294;2023-12-07T04:59:21;99766.53;;;-0.07;78.58
18819;BME280;9537;45.594;9.294;2023-12-07T05:00:24;99773.59;;;-0.09;79.27
18819;BME280;9537;45.594;9.294;2023-12-07T05:01:25;99770.91;;;-0.07;78.94
18819;BME280;9537;45.594;9.294;2023-12-07T05:02:27;99769.47;;;-0.11;79.44
18819;BME280;9537;45.594;9.294;2023-12-07T05:03:28;99769.34;;;-0.10;79.12
18819;BME280;9537;45.594;9.294;2023-12-07T05:04:29;99773.41;;;-0.06;79.08
18819;BME280;9537;45.594;9.294;2023-12-07T05:05:30;99769.25;;;-0.08;78.85
18819;BME280;9537;45.594;9.294;2023-12-07T05:06:32;99774.66;;;-0.11;78.85
18819;BME280;9537;45.594;9.294;2023-12-07T05:07:33;99775.69;;;-0.14;79.13
18819;BME280;9537;45.594;9.294;2023-12-07T05:08:35;99773.59;;;-0.21;79.49
18819;BME280;9537;45.594;9.294;2023-12-07T05:09:36;99773.69;;;-0.23;79.18
18819;BME280;9537;45.594;9.294;2023-12-07T05:10:38;99770.16;;;-0.22;79.30
18819;BME280;9537;45.594;9.294;2023-12-07T05:11:39;99772.75;;;-0.22;78.89
18819;BME280;9537;45.594;9.294;2023-12-07T05:12:41;99770.56;;;-0.28;79.05
18819;BME280;9537;45.594;9.294;2023-12-07T05:13:42;99769.53;;;-0.26;79.38
18819;BME280;9537;45.594;9.294;2023-12-07T05:14:44;99766.22;;;-0.28;80.01
18819;BME280;9537;45.594;9.294;2023-12-07T05:15:46;99769.53;;;-0.26;80.02
18819;BME280;9537;45.594;9.294;2023-12-07T05:16:48;99761.63;;;-0.24;80.20
18819;BME280;9537;45.594;9.294;2023-12-07T05:17:53;99772.03;;;-0.24;79.80
18819;BME280;9537;45.594;9.294;2023-12-07T05:18:54;99762.59;;;-0.25;79.35
18819;BME280;9537;45.594;9.294;2023-12-07T05:19:56;99772.16;;;-0.26;79.82
18819;BME280;9537;45.594;9.294;2023-12-07T05:20:58;99771.00;;;-0.21;79.56
18819;BME280;9537;45.594;9.294;2023-12-07T05:21:59;99774.22;;;-0.18;79.41
18819;BME280;9537;45.594;9.294;2023-12-07T05:23:01;99768.31;;;-0.20;79.13
18819;BME280;9537;45.594;9.294;2023-12-07T05:24:01;99765.81;;;-0.21;79.17
18819;BME280;9537;45.594;9.294;2023-12-07T05:25:03;99772.75;;;-0.22;78.56
18819;BME280;9537;45.594;9.294;2023-12-07T05:26:05;99773.69;;;-0.23;79.16
18819;BME280;9537;45.594;9.294;2023-12-07T05:27:08;99772.03;;;-0.24;79.54
18819;BME280;9537;45.594;9.294;2023-12-07T05:28:09;99770.25;;;-0.24;79.06
18819;BME280;9537;45.594;9.294;2023-12-07T05:29:10;99771.06;;;-0.23;79.39
18819;BME280;9537;45.594;9.294;2023-12-07T05:30:12;99762.47;;;-0.24;80.15
18819;BME280;9537;45.594;9.294;2023-12-07T05:31:17;99767.47;;;-0.20;80.41
18819;BME280;9537;45.594;9.294;2023-12-07T05:32:19;99768.19;;;-0.18;80.16
18819;BME280;9537;45.594;9.294;2023-12-07T05:33:19;99766.13;;;-0.13;80.74
18819;BME280;9537;45.594;9.294;2023-12-07T05:34:21;99773.28;;;-0.17;80.44
18819;BME280;9537;45.594;9.294;2023-12-07T05:35:22;99767.91;;;-0.14;79.83